Date,TemperatureHighF,TemperatureAvgF,TemperatureLowF,DewpointHighF,DewpointAvgF,DewpointLowF,HumidityHigh,HumidityAvg,HumidityLow,PressureMaxIn,PressureMinIn,WindSpeedMaxMPH,WindSpeedAvgMPH,GustSpeedMaxMPH,PrecipitationSumIn
2013-1-1,36.8,31.6,19.7,26.4,18.3,6.9,68,58,46,29.93,29.71,18,5,23,0.00
2013-1-2,29.6,21.5,12.3,16.8,8.8,1.4,70,57,50,30.10,29.90,15,4,21,0.00
2013-1-3,25.6,16.0,7.3,11.0,0.9,-3.0,63,51,31,30.13,30.00,10,3,16,0.00
2013-1-4,38.9,30.0,21.6,24.5,19.2,11.4,70,64,50,29.99,29.81,19,3,22,0.00
2013-1-5,42.0,34.7,29.3,25.4,20.8,16.4,74,58,37,30.26,29.85,11,2,20,0.00
2013-1-6,43.3,35.5,28.7,29.0,25.7,20.5,86,68,55,30.22,29.93,15,2,18,0.00
2013-1-7,38.5,34.5,30.6,30.0,25.6,16.5,85,71,43,30.40,29.96,13,2,18,0.00
2013-1-8,47.0,37.8,29.1,29.9,28.2,25.9,89,70,49,30.37,30.26,18,4,24,0.00
2013-1-9,44.6,38.9,32.0,36.5,30.3,26.7,85,71,57,30.40,29.98,13,2,19,0.00
2013-1-10,46.0,42.6,34.9,28.9,24.2,19.5,65,48,36,30.53,30.03,36,12,46,0.00
2013-1-11,41.2,35.6,30.3,36.7,28.3,22.7,93,75,66,30.52,30.23,10,1,13,0.10
2013-1-12,45.4,41.1,37.9,43.1,39.4,36.0,97,94,89,30.24,30.12,6,1,12,0.01
2013-1-13,53.0,46.2,41.7,50.1,44.8,41.1,98,95,90,30.15,29.99,10,2,14,0.00
2013-1-14,61.4,52.3,42.6,51.2,43.2,27.7,94,74,41,30.25,29.84,12,3,19,0.00
2013-1-15,42.5,39.1,35.6,28.3,25.6,23.2,66,58,55,30.31,30.20,6,1,11,0.00
2013-1-16,35.7,34.1,32.2,32.2,27.4,23.1,96,78,61,30.24,29.82,4,2,7,0.16
2013-1-17,42.2,35.4,29.7,32.0,27.4,13.8,94,74,51,30.09,29.83,11,3,16,0.21
2013-1-18,29.3,23.8,18.2,12.4,1.4,-6.0,49,37,27,30.46,30.06,14,5,21,0.00
2013-1-19,49.2,37.8,23.8,33.1,22.4,5.7,73,55,38,30.39,29.89,20,6,27,0.00
2013-1-20,54.3,42.5,29.3,33.9,26.1,9.7,73,53,33,29.91,29.52,24,7,32,0.00
2013-1-21,28.9,25.2,22.6,20.5,10.9,4.8,88,56,39,30.10,29.80,13,3,25,0.00
2013-1-22,23.9,20.8,13.8,19.6,8.2,-1.0,86,60,36,30.08,29.75,14,4,21,0.00
2013-1-23,15.8,11.7,7.3,0.5,-6.2,-11.0,61,44,29,30.14,30.06,14,5,23,0.00
2013-1-24,19.8,11.0,2.1,-6.0,-9.5,-12.0,52,39,23,30.21,30.05,18,6,26,0.00
2013-1-25,23.0,15.8,8.1,12.7,-6.7,-13.0,82,37,20,30.30,30.07,22,6,31,0.00
2013-1-26,24.7,17.8,12.6,12.5,3.2,-6.0,83,56,28,30.23,30.00,13,4,20,0.00
2013-1-27,29.3,20.7,14.3,2.8,-0.1,-5.0,59,42,22,30.46,30.22,30,7,39,0.00
2013-1-28,31.6,25.5,20.4,27.8,12.0,1.5,93,60,29,30.45,30.01,11,2,12,0.00
2013-1-29,35.8,31.0,26.2,33.8,28.4,24.3,94,90,85,30.20,30.01,4,1,6,0.13
2013-1-30,61.8,50.1,35.2,57.6,47.8,33.6,96,92,83,30.16,29.47,18,6,30,0.12
2013-1-31,60.3,49.8,31.7,57.6,38.6,14.6,93,68,37,29.58,28.98,27,13,35,0.00
2013-2-1,32.8,29.1,22.8,16.9,8.3,3.6,55,41,31,30.07,29.58,16,6,25,0.00
2013-2-2,29.5,25.0,18.9,12.8,7.1,2.6,54,46,38,30.25,30.05,13,4,17,0.00
2013-2-3,26.5,24.4,22.1,21.9,19.4,12.5,85,81,55,30.05,29.73,6,2,12,0.00
2013-2-4,29.8,25.1,21.7,21.4,12.3,5.7,88,60,37,29.94,29.70,20,6,30,0.00
2013-2-5,28.5,24.9,21.7,24.3,13.3,8.4,90,62,48,30.03,29.94,12,2,13,0.00
2013-2-6,38.4,30.6,24.9,26.3,19.7,4.9,93,67,38,30.28,29.92,15,3,19,0.03
2013-2-7,29.9,24.9,19.5,19.7,3.9,0.0,70,41,30,30.53,30.29,13,2,17,0.00
2013-2-8,33.2,29.6,18.0,31.3,26.2,16.5,98,88,72,30.49,29.58,19,7,31,0.00
2013-2-9,20.0,17.4,15.3,18.6,14.0,4.3,95,87,61,30.17,29.53,21,7,28,0.00
2013-2-10,41.1,26.0,14.8,16.1,6.4,1.5,65,45,22,30.40,30.18,11,2,16,0.00
2013-2-11,45.6,34.3,25.2,44.3,27.4,11.8,98,77,54,30.35,29.60,5,1,17,0.18
2013-2-12,44.7,39.4,34.7,38.3,29.9,27.1,96,69,53,29.87,29.59,15,4,22,0.00
2013-2-13,43.0,36.1,30.8,29.8,25.6,23.1,81,66,49,29.87,29.68,10,2,12,0.00
2013-2-14,44.5,37.2,32.3,29.6,24.1,20.5,81,60,40,29.99,29.70,10,2,11,0.00
2013-2-15,52.5,40.6,31.1,36.9,32.2,24.7,88,73,53,30.00,29.90,12,3,18,0.00
2013-2-16,38.5,36.1,31.0,34.6,27.9,18.4,91,73,55,29.94,29.71,10,4,14,0.00
2013-2-17,30.8,23.2,17.4,19.5,10.1,1.3,88,58,43,29.70,29.37,21,7,29,0.00
2013-2-18,31.7,23.5,14.5,4.3,1.1,-2.0,53,39,23,30.15,29.68,22,9,26,0.00
2013-2-19,48.7,37.7,24.3,43.3,24.8,4.0,95,62,40,30.16,29.57,11,2,16,0.39
2013-2-20,43.5,33.8,26.7,41.6,22.0,10.8,93,64,40,29.77,29.53,20,6,24,0.00
2013-2-21,32.8,27.9,25.2,16.3,13.6,10.5,67,55,43,30.16,29.77,17,6,22,0.00
2013-2-22,39.5,32.4,25.7,25.8,21.8,16.3,73,65,47,30.39,30.17,12,2,17,0.00
2013-2-23,39.5,36.1,33.1,33.9,29.6,24.8,95,78,70,30.34,29.92,9,2,14,0.22
2013-2-24,38.3,34.8,30.6,37.5,33.6,29.5,97,96,93,29.91,29.68,11,2,16,0.35
2013-2-25,40.9,35.3,30.1,32.8,30.0,27.9,96,82,64,30.25,29.89,5,1,10,0.13
2013-2-26,44.3,38.0,32.9,34.3,30.9,27.4,92,76,57,30.34,30.16,15,3,18,0.00
2013-2-27,41.5,39.5,37.8,40.4,37.7,32.9,98,93,79,30.15,29.55,22,6,32,0.90
2013-2-28,47.6,39.8,33.9,39.6,36.2,33.1,98,88,68,29.65,29.52,6,2,9,0.00
2013-3-1,40.9,38.2,35.3,35.7,30.8,28.3,90,75,63,29.68,29.52,10,3,14,0.00
2013-3-2,43.0,38.1,34.4,30.2,27.8,25.8,74,67,57,29.67,29.61,6,2,13,0.00
2013-3-3,41.7,35.9,32.6,32.6,28.8,24.9,90,76,67,29.64,29.55,7,3,12,0.00
2013-3-4,40.0,34.7,31.6,29.0,24.9,21.5,85,68,51,29.72,29.57,14,6,23,0.00
2013-3-5,44.2,37.4,30.8,34.7,28.4,22.1,82,70,56,30.06,29.72,13,3,17,0.00
2013-3-6,40.1,37.5,35.1,35.5,33.4,29.9,91,85,67,30.10,30.03,20,6,31,0.05
2013-3-7,36.7,32.4,30.3,31.6,30.3,28.2,97,93,76,30.05,29.98,17,6,26,0.10
2013-3-8,40.5,32.9,28.1,34.0,28.9,23.7,98,87,52,30.14,29.93,15,5,30,0.01
2013-3-9,43.5,36.6,31.1,31.8,27.3,21.5,91,70,57,30.35,30.14,10,3,16,0.04
2013-3-10,41.6,34.4,29.0,33.2,30.0,27.2,94,84,69,30.42,30.33,14,2,14,0.00
2013-3-11,54.3,42.9,34.7,41.1,36.6,31.5,92,80,61,30.33,30.16,10,4,16,0.00
2013-3-12,56.8,50.6,42.1,53.7,48.1,40.0,96,91,81,30.17,29.72,19,5,26,0.29
2013-3-13,53.0,46.0,38.9,51.6,32.5,20.3,96,63,32,29.78,29.69,12,4,20,0.00
2013-3-14,38.5,32.3,23.2,25.0,15.9,6.7,67,51,39,29.83,29.70,20,5,21,0.00
2013-3-15,41.5,30.1,19.2,27.6,12.0,3.2,71,48,24,29.87,29.63,14,6,27,0.00
2013-3-16,40.2,34.4,29.3,26.9,15.2,7.6,71,47,27,29.87,29.66,11,3,18,0.00
2013-3-17,37.7,31.8,26.8,21.0,10.0,4.0,59,41,25,30.32,29.87,14,3,22,0.00
2013-3-18,37.3,28.6,20.4,27.1,10.5,0.1,91,48,29,30.46,30.26,12,3,15,0.00
2013-3-19,35.9,32.3,28.4,35.3,31.5,26.8,98,97,91,30.24,29.60,19,7,27,0.58
2013-3-20,38.6,31.9,25.8,26.6,21.6,18.1,94,68,45,29.82,29.69,16,4,22,0.01
2013-3-21,38.0,32.2,29.6,29.7,23.0,16.5,92,70,46,29.82,29.61,10,1,13,0.00
2013-3-22,38.9,34.4,29.8,28.1,20.4,16.4,89,57,41,29.74,29.60,11,3,17,0.00
2013-3-23,43.9,36.0,28.9,24.2,20.0,17.2,73,54,35,29.78,29.63,16,5,26,0.00
2013-3-24,47.8,39.0,32.1,31.7,24.2,20.4,74,56,39,29.82,29.73,14,4,18,0.00
2013-3-25,43.6,38.7,33.2,35.3,30.8,25.8,79,73,65,29.77,29.52,18,3,24,0.00
2013-3-26,50.6,41.3,33.3,32.0,25.2,19.0,93,56,29,29.78,29.52,10,3,16,0.02
2013-3-27,53.3,44.0,33.4,32.3,24.6,22.1,69,48,30,29.86,29.73,14,4,17,0.00
2013-3-28,47.0,42.1,36.6,35.2,33.5,29.8,89,72,52,30.01,29.86,9,2,15,0.00
2013-3-29,57.1,47.4,38.9,35.2,32.9,29.2,76,59,37,30.04,29.96,9,3,17,0.00
2013-3-30,57.2,47.8,39.1,33.7,26.4,13.6,72,47,19,30.09,30.00,12,2,17,0.00
2013-3-31,60.6,48.0,34.6,40.8,27.3,21.7,77,47,23,30.12,29.75,12,3,22,0.01
2013-4-1,62.4,47.6,36.0,47.2,37.2,12.0,96,70,34,29.78,29.50,15,5,24,0.13
2013-4-2,40.1,34.7,29.6,17.2,13.0,9.3,50,41,30,29.94,29.78,22,7,30,0.00
2013-4-3,45.6,37.1,30.1,19.6,13.1,8.1,61,39,22,30.15,29.92,17,8,26,0.00
2013-4-4,57.0,42.4,29.5,26.8,16.6,8.4,57,38,15,30.30,30.05,13,4,19,0.00
2013-4-5,61.1,46.7,37.6,30.9,27.0,21.2,71,50,23,30.05,29.62,14,5,21,0.00
2013-4-6,46.3,39.3,32.4,26.3,10.3,0.6,57,33,15,30.34,29.87,16,4,25,0.00
2013-4-7,52.7,43.2,32.5,41.1,27.7,12.5,81,56,33,30.33,30.01,17,4,32,0.00
2013-4-8,65.1,52.7,45.5,43.4,40.9,35.9,89,67,35,30.10,29.95,12,3,18,0.00
2013-4-9,71.5,55.2,47.1,52.9,44.4,39.3,92,70,39,30.09,29.85,11,4,21,0.09
2013-4-10,60.9,51.2,46.4,48.5,44.7,41.9,92,79,59,30.02,29.86,10,2,15,0.18
2013-4-11,51.0,46.7,43.8,46.9,41.4,34.9,96,83,67,30.14,29.82,9,2,16,0.05
2013-4-12,44.1,39.7,37.7,38.1,35.6,30.8,96,85,69,30.17,29.78,24,6,27,0.43
2013-4-13,52.0,43.1,36.9,41.0,37.8,33.8,95,82,55,29.92,29.75,9,2,14,0.00
2013-4-14,52.1,47.0,42.2,41.0,32.9,26.8,81,60,38,30.21,29.91,14,3,20,0.00
2013-4-15,53.2,45.2,35.6,41.0,33.8,29.1,77,65,47,30.39,30.21,14,3,16,0.00
2013-4-16,64.0,52.4,40.5,51.0,42.1,36.4,89,70,47,30.41,30.06,19,4,24,0.00
2013-4-17,67.2,59.4,52.0,53.1,38.0,27.8,85,49,24,30.33,30.05,12,4,18,0.00
2013-4-18,63.9,53.5,46.2,44.3,35.5,28.5,73,52,33,30.43,30.15,14,4,21,0.00
2013-4-19,74.5,63.4,52.8,63.4,58.0,44.7,100,84,61,30.15,29.66,18,6,30,0.00
2013-4-20,66.6,55.2,45.5,63.2,41.9,23.7,95,65,36,30.19,29.60,17,5,28,0.34
2013-4-21,51.8,43.0,35.7,32.4,23.6,19.0,65,47,29,30.68,30.21,14,4,20,0.00
2013-4-22,50.0,42.6,35.5,36.6,31.2,25.9,78,65,40,30.77,30.59,22,4,22,0.00
2013-4-23,42.7,41.4,39.2,41.0,38.2,32.1,96,89,71,30.59,30.12,14,3,18,0.07
2013-4-24,73.8,54.3,41.5,52.4,45.5,39.9,97,75,42,30.11,29.79,12,4,19,0.01
2013-4-25,65.2,56.8,49.1,53.0,38.8,23.6,92,57,21,30.26,29.83,12,3,21,0.02
2013-4-26,54.5,49.9,45.6,42.3,36.9,29.3,87,62,48,30.43,30.26,12,3,19,0.00
2013-4-27,62.9,52.9,41.1,42.6,37.1,29.0,93,59,31,30.42,30.29,11,2,15,0.00
2013-4-28,67.2,55.8,44.9,43.4,36.7,28.0,78,51,31,30.34,30.22,14,4,20,0.00
2013-4-29,69.9,57.7,48.7,47.1,38.1,13.7,82,53,16,30.28,30.19,15,3,18,0.00
2013-4-30,66.1,57.0,49.3,38.8,29.8,12.5,63,39,13,30.36,30.25,12,2,20,0.00
2013-5-1,63.9,55.9,43.4,51.5,34.0,22.8,76,47,21,30.48,30.37,12,2,15,0.00
2013-5-2,74.6,56.5,47.3,48.5,42.5,36.9,81,63,27,30.48,30.37,18,3,23,0.00
2013-5-3,57.3,49.9,42.8,44.8,41.4,38.6,85,73,60,30.53,30.38,13,3,18,0.00
2013-5-4,54.7,48.9,43.3,44.9,40.7,38.8,86,74,60,30.37,30.32,15,3,19,0.00
2013-5-5,56.3,48.5,39.0,43.7,40.3,37.0,93,75,53,30.33,30.27,10,2,17,0.00
2013-5-6,60.3,51.1,41.2,50.5,45.9,40.1,97,83,62,30.29,30.16,13,2,15,0.00
2013-5-7,75.0,63.4,47.7,59.8,52.6,45.4,93,70,48,30.18,30.09,14,2,18,0.00
2013-5-8,68.0,61.2,55.5,61.9,57.4,54.0,95,88,78,30.21,30.05,14,2,20,0.20
2013-5-9,69.0,58.9,56.2,62.2,57.3,55.0,98,95,77,30.05,29.89,10,1,13,0.72
2013-5-10,77.4,64.8,55.3,60.2,57.3,54.7,98,79,51,29.96,29.89,10,2,13,0.00
2013-5-11,73.2,64.8,59.7,63.1,59.1,55.1,93,82,67,29.91,29.69,15,3,25,0.02
2013-5-12,72.6,62.4,52.7,60.4,51.5,29.6,96,71,36,29.80,29.56,13,3,20,0.04
2013-5-13,59.3,51.9,45.7,33.2,30.2,26.7,59,44,30,30.03,29.81,17,4,18,0.00
2013-5-14,58.5,51.2,42.1,35.2,30.9,27.0,70,47,30,30.04,29.97,12,3,16,0.00
2013-5-15,66.6,54.4,42.1,52.7,39.9,30.2,89,61,30,30.05,29.68,13,2,21,0.00
2013-5-16,82.3,68.4,52.2,58.8,42.3,32.3,92,48,20,29.79,29.61,19,4,21,0.00
2013-5-17,69.5,60.5,54.0,47.1,42.6,34.7,68,53,31,30.21,29.79,8,2,15,0.00
2013-5-18,70.8,61.2,48.9,50.4,45.4,38.0,87,58,32,30.31,30.21,10,2,16,0.00
2013-5-19,71.4,57.9,52.3,54.8,50.7,47.2,95,78,51,30.34,30.23,13,2,16,0.09
2013-5-20,82.9,67.2,55.9,65.3,60.5,54.5,97,81,54,30.22,29.90,7,1,13,0.17
2013-5-21,74.4,61.4,52.0,63.2,57.4,50.3,96,88,68,30.01,29.88,10,2,17,0.02
2013-5-22,67.2,55.8,50.8,60.0,52.8,49.3,97,90,74,30.05,29.89,13,2,16,0.04
2013-5-23,77.8,64.8,54.1,69.0,61.3,53.2,99,89,72,29.93,29.81,12,2,23,0.05
2013-5-24,72.4,63.4,49.5,66.9,61.2,48.6,97,93,79,29.82,29.65,9,2,17,1.05
2013-5-25,51.9,48.0,42.2,50.2,46.6,38.9,98,95,88,29.80,29.69,10,3,24,0.28
2013-5-26,58.3,49.1,39.3,42.8,39.4,37.1,93,71,48,30.09,29.71,15,5,22,0.03
2013-5-27,72.3,58.9,44.0,44.9,38.2,28.9,87,52,22,30.17,30.07,26,4,29,0.00
2013-5-28,70.6,60.8,47.5,54.3,47.4,39.4,89,64,39,30.24,30.16,13,2,15,0.00
2013-5-29,74.0,63.5,58.4,65.6,59.9,53.4,100,89,73,30.20,29.99,6,2,12,0.94
2013-5-30,88.9,77.4,63.4,69.4,66.4,62.5,98,72,48,30.08,29.99,10,3,19,0.00
2013-5-31,95.2,83.4,68.9,69.4,66.6,63.2,88,60,36,30.08,29.92,15,3,16,0.00
2013-6-1,93.8,82.5,71.2,69.0,65.9,63.1,76,59,40,29.96,29.85,13,3,19,0.00
2013-6-2,90.9,78.4,68.4,70.1,66.7,64.3,87,69,44,29.87,29.72,19,5,30,0.00
2013-6-3,79.6,70.3,65.2,68.5,63.9,45.0,95,81,48,29.84,29.74,7,2,13,0.42
2013-6-4,72.2,63.7,53.6,47.0,44.5,41.7,65,51,38,30.09,29.82,11,2,15,0.00
2013-6-5,74.8,64.7,54.5,52.2,46.9,42.7,77,54,35,30.18,30.09,13,1,14,0.00
2013-6-6,74.1,65.7,57.0,57.1,50.4,43.0,78,59,38,30.19,30.10,14,2,15,0.00
2013-6-7,60.8,56.3,54.1,56.5,53.6,48.9,98,91,75,30.12,29.81,14,3,18,2.85
2013-6-8,79.4,63.9,53.0,65.2,58.0,52.7,99,83,60,29.99,29.60,11,2,17,0.45
2013-6-9,80.4,70.7,59.7,59.4,56.4,53.4,90,63,41,30.15,30.00,9,2,15,0.00
2013-6-10,69.9,63.5,57.6,59.1,57.1,55.1,96,80,62,30.21,30.02,11,2,17,0.58
2013-6-11,64.5,58.5,55.9,59.5,56.9,55.2,99,95,83,30.03,29.57,19,2,20,1.26
2013-6-12,70.7,62.5,56.0,58.2,55.6,53.7,100,80,57,29.81,29.55,14,2,23,0.02
2013-6-13,70.5,59.5,52.9,57.3,53.5,49.2,96,82,47,29.81,29.67,6,1,14,0.62
2013-6-14,75.5,61.6,51.6,57.6,53.8,50.4,98,78,48,29.75,29.63,9,1,16,0.83
2013-6-15,80.0,69.8,58.8,55.1,48.1,41.3,84,50,26,29.93,29.75,10,2,16,0.00
2013-6-16,76.8,69.4,59.1,63.5,53.9,46.6,81,59,41,29.93,29.71,12,2,14,0.00
2013-6-17,87.7,71.9,62.8,64.1,60.6,56.3,94,71,35,29.90,29.77,13,2,18,0.14
2013-6-18,75.8,64.1,58.6,63.4,59.6,57.1,96,87,61,29.95,29.87,12,1,16,0.41
2013-6-19,74.6,65.6,56.5,58.2,52.5,46.4,97,67,39,30.14,29.90,9,1,14,0.01
2013-6-20,79.4,68.9,54.7,58.0,53.2,48.7,91,60,36,30.25,30.14,12,2,14,0.00
2013-6-21,85.2,73.0,60.2,65.2,58.6,53.9,81,63,37,30.25,30.18,10,2,15,0.00
2013-6-22,85.4,74.6,65.3,64.1,59.6,56.0,73,61,42,30.22,30.11,12,3,17,0.00
2013-6-23,91.0,78.4,66.8,72.6,65.5,56.4,79,65,51,30.15,29.98,11,3,19,0.00
2013-6-24,93.8,81.9,71.5,73.1,70.7,68.0,92,71,46,30.01,29.86,10,3,14,0.26
2013-6-25,92.7,80.8,70.7,70.9,68.4,66.1,91,69,44,29.90,29.71,11,3,21,0.00
2013-6-26,86.3,76.3,68.4,71.2,68.9,67.0,96,79,59,29.84,29.70,7,2,11,0.04
2013-6-27,71.6,65.4,61.7,66.8,63.6,61.0,98,94,83,29.86,29.75,10,2,12,0.02
2013-6-28,83.7,71.6,61.4,73.6,67.9,60.8,99,89,66,29.77,29.48,13,4,24,0.58
2013-6-29,84.6,76.2,71.6,72.0,69.8,68.3,94,82,61,29.72,29.51,12,3,20,0.00
2013-6-30,86.2,77.4,70.9,74.0,70.7,68.2,93,81,64,29.93,29.72,10,2,15,0.00
2013-7-1,85.4,76.8,72.0,74.9,72.4,70.3,95,87,69,30.08,29.93,10,2,15,0.03
2013-7-2,85.3,74.7,63.8,74.9,69.9,61.1,92,85,69,30.20,30.07,9,2,15,0.00
2013-7-3,90.2,77.6,63.5,74.2,69.5,61.1,93,78,56,30.19,30.12,11,3,22,0.00
2013-7-4,93.4,83.4,74.1,75.6,73.7,71.8,93,74,53,30.19,30.07,12,4,16,0.00
2013-7-5,95.6,85.9,77.1,75.8,73.8,71.8,84,69,49,30.15,30.02,12,3,17,0.00
2013-7-6,91.8,83.7,77.6,74.9,72.4,65.3,85,70,50,30.06,29.96,10,3,16,0.00
2013-7-7,93.7,82.2,74.2,74.4,70.3,65.2,85,68,51,30.01,29.89,6,2,13,0.00
2013-7-8,84.1,77.6,68.3,75.2,71.9,64.9,91,83,70,30.05,29.89,7,2,16,0.02
2013-7-9,73.7,69.4,65.6,67.5,65.5,63.8,94,88,80,30.10,30.03,6,1,10,0.00
2013-7-10,87.2,74.8,66.0,76.1,70.5,64.8,98,87,68,30.07,29.78,13,2,20,0.02
2013-7-11,82.8,77.5,73.5,74.4,72.1,68.9,94,84,67,29.90,29.76,8,2,12,0.14
2013-7-12,76.6,71.5,66.8,70.2,62.4,57.6,93,74,56,30.19,29.91,10,2,20,0.00
2013-7-13,76.6,70.3,66.5,69.1,66.1,62.7,93,87,76,30.31,30.19,7,1,10,0.00
2013-7-14,87.6,79.6,71.0,75.2,72.0,68.8,98,79,60,30.30,30.19,6,1,10,0.00
2013-7-15,92.0,83.6,74.5,74.4,72.2,70.4,91,71,51,30.19,30.08,6,2,9,0.00
2013-7-16,93.0,84.2,74.0,74.1,69.3,66.5,85,63,46,30.15,30.10,4,1,10,0.00
2013-7-17,95.5,85.5,75.3,74.9,71.1,67.2,83,64,41,30.17,29.98,9,2,15,0.00
2013-7-18,93.0,82.6,78.6,75.7,72.3,68.2,82,72,51,30.00,29.93,12,3,19,0.00
2013-7-19,98.1,88.2,79.3,78.9,75.2,71.2,87,68,43,29.93,29.70,16,3,21,0.00
2013-7-20,94.4,85.9,79.8,78.3,74.0,64.5,86,69,48,29.79,29.62,12,3,20,0.00
2013-7-21,80.5,75.4,71.5,69.0,65.2,61.1,90,72,56,29.98,29.79,12,2,15,0.08
2013-7-22,79.7,73.6,69.7,71.0,68.4,66.7,94,85,68,30.01,29.88,13,2,15,0.00
2013-7-23,81.2,72.7,68.4,76.0,70.6,67.5,99,93,80,29.88,29.53,28,2,33,1.92
2013-7-24,85.0,77.4,68.6,73.1,67.1,56.6,92,72,52,29.94,29.57,25,4,28,0.00
2013-7-25,68.4,62.2,59.5,58.7,55.5,49.9,96,80,64,30.10,29.94,9,1,13,0.43
2013-7-26,70.6,64.9,59.8,67.6,62.9,58.6,98,94,82,30.05,29.92,6,2,18,0.27
2013-7-27,85.4,74.4,67.6,67.7,65.2,62.9,93,75,48,30.05,29.98,13,3,20,0.00
2013-7-28,79.3,70.5,67.9,70.5,67.1,65.6,94,90,74,30.01,29.96,8,1,13,0.01
2013-7-29,79.9,72.1,67.3,69.9,66.6,63.8,97,84,62,30.03,29.96,13,2,25,0.16
2013-7-30,83.7,73.7,63.7,67.7,60.6,55.5,97,68,39,30.09,30.02,6,2,13,0.06
2013-7-31,80.3,71.8,70.4,64.7,61.2,59.8,79,69,55,30.13,30.03,7,0,11,0.00
2013-8-1,83.7,73.7,66.1,66.1,63.1,61.3,89,71,49,30.05,29.88,10,2,16,0.00
2013-8-2,83.9,73.6,66.2,68.2,62.6,58.0,97,71,44,29.88,29.78,10,2,16,0.00
2013-8-3,80.4,73.0,67.7,65.0,63.3,61.4,84,73,55,29.86,29.77,10,2,17,0.00
2013-8-4,80.9,71.8,62.2,65.0,57.3,54.5,79,62,41,29.88,29.76,8,2,13,0.00
2013-8-5,76.4,67.0,57.4,54.7,48.7,41.9,81,55,30,30.04,29.87,9,2,17,0.00
2013-8-6,77.6,67.5,55.0,57.4,51.3,47.0,81,58,39,30.14,30.04,11,1,14,0.00
2013-8-7,81.6,70.2,60.2,60.0,55.7,49.2,89,63,36,30.18,30.11,11,2,16,0.00
2013-8-8,81.9,72.5,66.7,71.2,64.8,53.7,90,77,63,30.14,30.00,10,2,13,0.00
2013-8-9,73.4,73.0,72.8,70.2,70.2,69.8,91,91,89,30.02,29.75,4,2,12,0.00
2013-8-10,80.9,74.9,68.0,70.2,62.7,52.7,91,69,38,30.00,29.79,28,6,34,0.00
2013-8-11,79.7,71.8,65.8,59.8,55.0,49.3,75,57,42,30.08,29.99,6,2,12,0.00
2013-8-12,82.9,73.3,64.0,64.9,59.0,54.3,85,64,40,30.02,29.91,10,2,13,0.00
2013-8-13,78.2,71.6,68.4,67.2,63.9,61.5,85,77,61,29.92,29.68,5,1,11,0.00
2013-8-14,75.2,68.3,63.2,64.5,55.5,50.4,90,65,46,29.95,29.66,12,4,20,0.00
2013-8-15,78.1,67.6,56.5,53.4,51.9,48.8,83,60,38,30.10,29.96,10,2,13,0.00
2013-8-16,80.3,73.2,67.3,59.1,54.3,51.1,73,52,38,30.19,30.09,8,3,14,0.00
2013-8-17,77.7,70.0,60.4,60.5,57.5,53.6,85,66,45,30.28,30.18,11,2,14,0.00
2013-8-18,81.3,72.3,66.5,62.1,59.1,55.9,77,65,43,30.27,30.08,6,1,12,0.00
2013-8-19,81.9,73.7,66.5,63.0,60.0,57.9,75,63,45,30.08,29.94,6,2,14,0.00
2013-8-20,87.5,78.5,66.6,64.8,61.2,59.0,82,58,40,30.08,29.97,6,2,10,0.00
2013-8-21,89.4,80.6,66.9,65.6,63.7,60.8,81,59,43,30.14,30.01,5,1,12,0.00
2013-8-22,88.6,83.0,72.9,72.7,67.7,64.4,90,62,45,30.03,29.81,10,3,16,0.00
2013-8-23,81.6,73.1,67.0,70.0,60.7,51.7,92,67,45,30.11,29.81,7,2,14,0.00
2013-8-24,74.9,67.2,57.1,52.8,47.8,41.8,75,52,33,30.33,30.12,11,1,15,0.00
2013-8-25,84.0,70.8,56.7,57.1,52.6,47.8,84,56,30,30.36,30.18,9,1,12,0.00
2013-8-26,82.0,73.2,66.4,67.2,62.3,57.1,80,69,55,30.18,29.86,13,3,18,0.00
2013-8-27,79.5,73.3,68.5,70.5,67.5,65.9,95,83,67,29.89,29.83,7,1,12,0.02
2013-8-28,81.1,69.5,63.7,68.0,64.8,62.3,97,86,62,29.97,29.85,11,2,13,0.00
2013-8-29,67.1,64.7,62.5,64.6,61.7,57.9,96,90,84,30.07,29.95,7,1,16,0.00
2013-8-30,83.8,71.9,61.8,68.1,63.5,57.8,87,76,56,30.02,29.81,9,3,13,0.00
2013-8-31,81.9,75.1,69.0,73.7,70.6,67.1,94,86,75,29.84,29.78,9,2,15,0.00
2013-9-1,81.3,74.4,70.3,76.3,71.7,68.2,96,92,81,29.88,29.78,6,2,11,0.23
2013-9-2,79.9,74.9,73.1,72.6,71.6,68.2,96,90,74,29.87,29.71,18,3,25,0.06
2013-9-3,82.0,74.7,67.5,71.9,67.9,59.8,97,81,62,29.81,29.68,7,2,15,0.00
2013-9-4,81.0,70.7,61.6,60.6,56.9,53.9,85,64,40,29.91,29.80,12,2,15,0.00
2013-9-5,68.8,64.3,55.6,62.4,57.4,47.0,92,79,66,30.14,29.86,8,1,12,0.08
2013-9-6,70.2,59.9,48.0,46.8,43.0,38.1,82,56,34,30.24,30.09,6,1,13,0.00
2013-9-7,80.4,66.3,53.7,57.3,49.9,44.5,76,58,35,30.09,29.86,9,2,16,0.00
2013-9-8,75.7,66.5,56.1,61.5,52.3,40.7,81,62,36,30.09,29.74,13,3,19,0.00
2013-9-9,70.7,59.3,47.5,51.4,44.4,40.1,77,60,37,30.24,30.09,9,2,14,0.00
2013-9-10,76.4,67.6,58.5,69.9,62.0,51.0,92,82,75,30.15,30.02,12,2,19,0.07
2013-9-11,96.6,82.2,69.7,77.2,72.2,66.5,96,75,43,30.07,29.92,10,2,15,0.00
2013-9-12,88.6,78.4,68.0,74.8,70.9,66.6,96,79,58,29.96,29.67,13,3,21,0.67
2013-9-13,80.5,69.5,60.5,68.8,64.9,54.6,97,86,60,29.74,29.56,6,1,15,0.19
2013-9-14,66.6,61.7,58.1,55.3,53.3,51.0,85,74,64,30.05,29.75,7,2,12,0.01
2013-9-15,72.8,61.5,51.6,53.2,49.8,45.6,92,68,43,30.16,30.05,10,1,12,0.00
2013-9-16,67.9,59.5,50.2,55.1,50.0,39.6,83,71,57,30.24,30.01,7,1,15,0.01
2013-9-17,63.6,53.6,41.9,45.0,38.8,35.8,79,59,41,30.42,30.25,4,0,12,0.00
2013-9-18,74.9,60.4,46.1,50.6,44.7,40.2,88,61,29,30.33,30.13,6,1,13,0.00
2013-9-19,78.7,64.4,51.9,55.9,51.9,46.8,84,66,44,30.14,30.03,7,1,10,0.00
2013-9-20,77.2,65.0,54.5,59.6,55.9,51.9,91,74,45,30.08,30.00,10,1,11,0.00
2013-9-21,76.8,67.2,58.0,66.1,60.7,55.8,94,81,57,30.03,29.73,15,3,23,0.00
2013-9-22,72.1,66.7,54.5,67.5,58.6,47.0,95,76,48,29.82,29.61,11,3,19,0.00
2013-9-23,63.6,54.5,47.8,46.7,42.3,40.1,78,64,50,30.00,29.82,11,3,16,0.00
2013-9-24,68.1,54.4,43.5,46.3,42.2,38.6,83,65,41,29.99,29.81,10,2,14,0.00
2013-9-25,66.1,56.2,48.3,50.0,46.9,44.0,85,72,53,29.98,29.87,9,1,14,0.00
2013-9-26,66.0,58.8,53.8,51.2,48.9,45.3,78,70,53,30.12,29.98,8,1,14,0.00
2013-9-27,66.2,59.7,54.3,53.8,51.0,49.2,86,74,58,30.26,30.12,5,0,8,0.00
2013-9-28,71.3,59.2,50.8,57.7,53.0,49.1,94,81,58,30.32,30.25,11,1,14,0.00
2013-9-29,64.9,56.1,48.7,56.0,51.1,48.1,98,85,58,30.26,30.12,6,1,13,0.00
2013-9-30,66.0,56.6,49.8,53.9,51.3,48.7,98,84,56,30.12,29.97,10,1,11,0.00
2013-10-1,78.0,62.3,49.8,55.3,51.7,48.4,96,72,38,29.97,29.84,5,1,11,0.00
2013-10-2,80.4,69.3,57.8,61.5,58.2,53.6,87,70,52,29.94,29.81,10,2,18,0.00
2013-10-3,78.6,67.6,58.2,57.8,51.4,45.2,85,60,33,30.08,29.94,7,1,12,0.00
2013-10-4,67.6,61.9,58.2,58.4,53.9,49.2,87,75,67,30.08,30.03,4,0,6,0.02
2013-10-5,71.6,63.3,59.7,58.8,56.6,54.7,90,80,59,30.12,30.05,6,1,10,0.00
2013-10-6,61.7,57.6,55.4,58.0,55.7,53.8,97,94,80,30.23,30.11,10,1,14,0.22
2013-10-7,78.3,67.0,57.9,70.6,63.4,55.2,99,89,73,30.13,29.83,22,3,29,0.03
2013-10-8,66.8,59.5,51.7,54.8,44.8,37.7,76,60,37,30.37,29.90,9,2,14,0.00
2013-10-9,61.4,53.3,46.3,47.4,44.1,39.7,92,72,52,30.46,30.37,10,2,16,0.00
2013-10-10,62.0,53.1,44.4,53.3,48.9,42.7,95,86,70,30.36,30.18,12,1,13,0.00
2013-10-11,68.8,58.4,50.7,56.6,51.0,45.0,97,79,47,30.17,30.10,11,1,13,0.00
2013-10-12,60.3,55.2,50.3,56.4,51.9,48.0,95,89,82,30.39,30.14,12,2,17,0.00
2013-10-13,61.1,54.5,45.9,50.5,47.0,43.6,92,77,58,30.44,30.37,10,2,15,0.00
2013-10-14,65.6,51.9,40.6,51.6,44.6,38.5,96,79,38,30.41,30.25,5,0,7,0.00
2013-10-15,66.4,56.3,52.0,54.9,50.9,48.4,88,82,63,30.26,30.19,10,1,13,0.00
2013-10-16,63.1,57.3,52.6,56.4,53.7,50.5,97,88,75,30.18,29.91,6,0,10,0.00
2013-10-17,73.2,62.6,55.4,61.1,57.7,53.9,95,85,64,29.91,29.72,8,2,13,0.00
2013-10-18,67.7,62.2,53.2,61.0,51.9,43.2,95,71,46,29.90,29.61,12,3,19,0.04
2013-10-19,67.5,57.2,47.2,48.2,43.4,40.0,76,61,40,29.97,29.76,6,2,14,0.00
2013-10-20,62.1,55.8,48.1,52.0,41.5,33.2,88,62,35,30.01,29.69,13,3,18,0.00
2013-10-21,68.1,55.1,45.0,45.5,40.3,36.3,75,59,38,30.11,30.00,9,2,13,0.00
2013-10-22,67.8,57.2,49.0,52.5,47.0,38.7,85,70,51,29.99,29.69,7,2,15,0.00
2013-10-23,52.0,47.9,42.8,38.4,34.4,31.7,74,60,47,29.79,29.59,6,1,7,0.00
2013-10-24,53.4,47.2,42.8,35.9,30.6,24.4,73,54,34,29.88,29.63,17,4,22,0.00
2013-10-25,49.3,43.3,38.6,34.6,29.1,26.6,75,58,42,30.15,29.88,12,2,16,0.00
2013-10-26,56.0,45.6,35.7,38.0,31.1,26.2,80,59,32,30.15,29.88,15,3,25,0.00
2013-10-27,55.3,48.9,43.5,39.9,34.7,29.2,79,59,41,30.06,29.82,14,3,18,0.00
2013-10-28,58.6,47.1,39.1,35.4,31.9,25.0,75,57,40,30.34,30.06,13,3,21,0.00
2013-10-29,50.3,40.8,32.5,35.3,28.7,22.7,80,63,39,30.44,30.35,7,1,10,0.00
2013-10-30,53.1,42.6,37.2,42.2,36.9,32.8,94,81,63,30.37,30.19,3,0,7,0.04
2013-10-31,63.5,51.8,38.3,59.9,48.7,36.4,96,90,79,30.24,29.81,12,2,21,0.04
2013-11-1,71.8,64.9,60.0,63.6,58.8,54.4,95,81,65,29.79,29.46,17,6,34,0.08
2013-11-2,67.7,58.4,52.9,54.4,45.7,40.2,85,65,38,29.72,29.58,7,1,13,0.00
2013-11-3,52.8,42.3,32.7,47.7,31.1,17.1,94,66,41,30.42,29.71,7,2,13,0.05
2013-11-4,43.1,35.3,29.3,26.1,20.7,16.6,76,56,35,30.70,30.42,7,1,11,0.00
2013-11-5,50.5,40.0,29.7,36.3,28.9,22.8,78,65,45,30.73,30.52,7,1,10,0.00
2013-11-6,61.8,52.0,42.5,51.1,42.3,34.6,88,70,49,30.52,30.04,11,2,20,0.00
2013-11-7,67.0,54.6,42.2,58.6,49.9,32.4,93,85,65,30.04,29.67,14,4,29,0.27
2013-11-8,47.8,42.3,35.9,34.0,29.0,22.4,68,60,46,30.09,29.80,16,4,25,0.00
2013-11-9,45.4,40.3,35.3,29.8,24.4,20.6,62,53,37,30.21,30.04,14,4,18,0.00
2013-11-10,56.8,47.7,43.2,43.0,35.9,29.8,76,64,48,30.04,29.73,14,3,22,0.00
2013-11-11,52.2,45.9,40.5,34.1,28.8,23.8,66,52,34,30.10,29.84,18,5,22,0.00
2013-11-12,48.8,38.6,28.6,39.0,27.8,16.0,83,66,50,30.19,29.89,10,4,16,0.01
2013-11-13,36.3,30.2,25.3,16.8,14.7,10.7,67,53,36,30.29,30.18,13,4,16,0.00
2013-11-14,51.0,40.4,29.6,26.0,20.7,16.6,60,46,33,30.17,30.04,13,3,18,0.00
2013-11-15,60.1,48.3,38.3,34.9,21.4,11.7,63,37,17,30.20,30.10,17,4,27,0.00
2013-11-16,59.9,47.7,42.2,45.3,31.5,21.5,76,56,23,30.32,30.18,4,1,9,0.00
2013-11-17,58.0,49.0,38.6,57.4,44.4,34.1,98,85,71,30.31,29.85,6,1,11,0.04
2013-11-18,66.3,59.8,49.6,59.7,48.4,32.7,98,69,42,29.84,29.53,15,3,22,0.00
2013-11-19,49.1,40.6,31.8,32.7,22.7,17.0,54,49,39,30.26,29.65,15,5,22,0.00
2013-11-20,41.8,34.1,29.0,17.3,14.5,11.5,55,45,29,30.62,30.26,13,3,17,0.00
2013-11-21,48.4,37.7,26.4,31.7,21.0,15.1,67,52,31,30.64,30.38,11,2,13,0.00
2013-11-22,47.1,44.6,41.9,45.7,40.3,32.1,95,86,68,30.38,29.82,5,0,11,0.19
2013-11-23,45.0,41.1,30.5,43.3,28.3,15.5,94,64,34,29.90,29.78,22,4,28,0.00
2013-11-24,30.5,24.1,20.6,17.5,3.4,-10.0,68,42,20,30.19,29.78,57,16,74,0.00
2013-11-25,32.5,25.2,17.8,18.1,1.9,-12.0,57,37,16,30.37,30.19,26,7,33,0.00
2013-11-26,44.0,37.2,31.6,42.6,23.2,16.6,95,58,40,30.33,30.05,12,4,18,0.09
2013-11-27,62.3,51.2,42.0,61.5,49.9,39.5,98,95,90,30.04,29.20,14,4,28,1.14
2013-11-28,42.3,34.1,25.8,39.5,21.2,6.2,90,61,34,30.44,29.43,16,6,24,0.00
2013-11-29,33.6,27.4,21.9,16.4,11.2,5.1,63,51,35,30.75,30.43,8,2,13,0.00
2013-11-30,34.4,27.1,18.9,25.0,15.8,8.4,69,62,56,30.79,30.45,5,1,12,0.00
2013-12-1,43.8,37.6,34.2,41.0,33.4,25.4,97,85,70,30.44,30.01,5,1,13,0.20
2013-12-2,40.0,37.8,36.1,38.3,36.7,35.1,100,96,92,30.00,29.92,4,1,8,0.00
2013-12-3,48.7,39.9,35.7,37.2,34.4,31.8,97,82,56,29.95,29.84,10,2,11,0.00
2013-12-4,43.7,38.0,32.8,31.7,29.3,25.8,89,72,53,30.20,29.94,8,2,15,0.00
2013-12-5,55.7,45.0,35.5,54.0,40.9,30.0,98,86,78,30.21,29.92,8,1,14,0.00
2013-12-6,55.8,50.0,34.6,54.0,45.5,31.7,95,85,55,30.13,29.86,6,3,12,0.28
2013-12-7,39.6,34.3,30.5,33.0,26.5,19.1,95,74,54,30.45,30.06,15,3,20,0.11
2013-12-8,30.4,28.9,27.2,20.0,15.1,11.8,65,56,47,30.61,30.45,15,3,17,0.00
2013-12-9,41.8,33.6,26.3,41.0,30.8,14.8,97,90,54,30.50,29.88,10,2,18,0.39
2013-12-10,35.5,32.5,29.5,33.9,30.2,26.3,95,91,80,30.00,29.79,6,2,11,0.03
2013-12-11,31.1,28.6,25.0,26.3,22.1,17.6,88,77,59,30.22,30.00,13,3,18,0.00
2013-12-12,24.9,22.6,17.1,18.6,7.7,0.0,77,54,33,30.28,30.08,14,3,18,0.00
2013-12-13,29.2,22.4,15.2,18.3,10.7,2.3,75,61,48,30.39,30.00,18,4,20,0.00
2013-12-14,30.1,17.2,11.4,29.3,8.1,-2.0,97,68,51,30.61,30.16,14,3,23,0.00
2013-12-15,31.8,28.0,21.5,31.3,26.0,20.2,98,92,78,30.14,29.41,19,6,26,0.00
2013-12-16,27.9,25.1,19.2,22.4,13.7,7.4,82,63,42,30.21,29.75,16,4,21,0.00
2013-12-17,21.6,16.4,9.6,19.8,10.4,1.0,94,78,60,30.30,29.95,9,2,15,0.00
2013-12-18,34.4,24.1,16.7,21.7,18.1,14.2,92,79,56,30.08,29.86,9,3,17,0.00
2013-12-19,43.6,34.4,26.1,28.1,23.9,20.1,80,66,50,30.12,29.96,16,4,22,0.05
2013-12-20,54.4,44.5,37.1,39.0,33.2,27.9,71,65,52,30.12,29.91,11,2,15,0.00
2013-12-21,59.4,50.9,44.4,49.2,43.7,35.2,85,77,66,29.96,29.86,8,3,14,0.00
2013-12-22,55.5,45.1,35.2,52.9,43.2,34.2,98,93,85,30.03,29.80,7,2,15,0.00
2013-12-23,38.7,34.7,33.0,37.3,33.9,31.9,98,97,93,30.09,29.95,4,0,11,0.56
2013-12-24,37.9,33.9,27.3,36.0,24.8,14.8,93,71,48,30.20,30.05,14,2,15,0.00
2013-12-25,27.1,21.6,15.7,15.2,7.0,0.2,67,53,42,30.55,30.20,9,4,16,0.00
2013-12-26,35.6,27.7,20.8,31.9,21.9,6.3,94,79,53,30.50,30.09,8,2,12,0.01
2013-12-27,33.9,29.3,26.1,23.2,21.4,19.1,84,73,56,30.28,30.19,10,2,14,0.00
2013-12-28,48.0,37.1,28.5,28.5,25.7,21.9,77,64,45,30.22,29.99,10,3,19,0.00
2013-12-29,44.7,39.8,36.3,40.5,33.3,27.1,97,78,63,30.03,29.39,13,2,17,1.23
2013-12-30,42.8,33.7,19.5,34.8,24.5,9.5,94,72,41,30.16,29.51,13,4,24,0.00
2013-12-31,25.5,19.0,12.7,15.6,5.4,-2.0,71,55,41,30.18,30.03,10,2,14,0.00
2014-1-1,27.3,22.5,19.4,11.3,7.4,5.0,61,52,43,30.39,30.19,11,3,18,0.00
2014-1-2,22.5,14.9,9.3,15.4,11.2,6.4,89,85,57,30.37,29.83,9,4,14,0.00